createdAt,value
2023-02-11T00:01:32.175Z,13.31
2023-02-11T00:04:02.366Z,13.33
2023-02-11T00:06:32.221Z,13.35
2023-02-11T00:09:00.268Z,13.36
2023-02-11T00:15:40.052Z,13.23
2023-02-11T00:18:08.010Z,13.25
2023-02-11T00:21:33.703Z,13.27
2023-02-11T00:24:03.066Z,13.23
2023-02-11T00:26:46.408Z,13.22
2023-02-11T00:29:14.365Z,13.21
2023-02-11T00:31:42.423Z,13.22
2023-02-11T00:34:10.408Z,13.21
2023-02-11T00:36:41.973Z,13.20
2023-02-11T00:39:11.328Z,13.19
2023-02-11T00:41:39.443Z,13.18
2023-02-11T00:44:07.395Z,13.14
2023-02-11T00:46:35.475Z,13.14
2023-02-11T00:49:03.448Z,13.12
2023-02-11T00:51:31.970Z,13.09
2023-02-11T00:53:59.992Z,13.09
2023-02-11T00:56:58.918Z,13.15
2023-02-11T00:59:27.033Z,13.15
2023-02-11T01:01:55.082Z,13.14
2023-02-11T01:05:28.132Z,13.16
2023-02-11T01:07:56.364Z,13.12
2023-02-11T01:10:24.952Z,13.13
2023-02-11T01:12:55.389Z,13.16
2023-02-11T01:15:24.661Z,13.19
2023-02-11T01:17:52.883Z,13.21
2023-02-11T01:20:23.326Z,13.19
2023-02-11T01:22:51.384Z,13.25
2023-02-11T01:25:19.593Z,13.26
2023-02-11T01:27:47.609Z,13.26
2023-02-11T01:30:20.208Z,13.29
2023-02-11T01:32:48.576Z,13.29
2023-02-11T01:35:16.599Z,13.29
2023-02-11T01:37:44.783Z,13.35
2023-02-11T01:40:15.150Z,13.34
2023-02-11T01:42:43.193Z,13.35
2023-02-11T01:45:55.503Z,13.38
2023-02-11T01:48:26.419Z,13.38
2023-02-11T01:50:55.683Z,13.36
2023-02-11T01:53:40.962Z,13.39
2023-02-11T01:56:26.481Z,13.26
2023-02-11T01:58:56.548Z,13.23
2023-02-11T02:01:25.397Z,13.35
2023-02-11T02:03:55.840Z,13.35
2023-02-11T02:06:26.605Z,13.36
2023-02-11T02:08:56.798Z,13.39
2023-02-11T02:11:25.431Z,13.41
2023-02-11T02:13:53.421Z,13.38
2023-02-11T02:16:23.039Z,13.30
2023-02-11T02:18:57.456Z,13.33
2023-02-11T02:21:42.623Z,13.33
2023-02-11T02:24:28.834Z,13.23
2023-02-11T02:27:25.972Z,13.27
2023-02-11T02:30:34.893Z,13.22
2023-02-11T02:33:21.673Z,13.22
2023-02-11T02:35:57.794Z,13.21
2023-02-11T02:38:28.040Z,13.22
2023-02-11T02:40:59.747Z,13.06
2023-02-11T02:43:27.775Z,13.24
2023-02-11T02:45:55.908Z,13.26
2023-02-11T02:48:30.034Z,13.28
2023-02-11T02:51:20.735Z,13.25
2023-02-11T02:53:55.999Z,13.24
2023-02-11T02:56:26.761Z,13.25
2023-02-11T02:59:05.963Z,13.25
2023-02-11T03:01:37.617Z,13.27
2023-02-11T03:04:13.342Z,13.29
2023-02-11T03:06:46.627Z,13.35
2023-02-11T03:09:16.642Z,13.32
2023-02-11T03:11:45.095Z,13.36
2023-02-11T03:14:14.279Z,13.35
2023-02-11T03:16:44.414Z,13.31
2023-02-11T03:19:18.691Z,13.27
2023-02-11T03:21:46.743Z,13.17
2023-02-11T03:24:17.641Z,13.15
2023-02-11T03:26:49.710Z,13.05
2023-02-11T03:29:19.431Z,13.01
2023-02-11T03:31:52.175Z,13.05
2023-02-11T03:34:24.380Z,12.94
2023-02-11T03:36:54.636Z,13.03
2023-02-11T03:39:24.715Z,13.02
2023-02-11T03:41:52.721Z,13.03
2023-02-11T03:44:23.105Z,13.00
2023-02-11T03:46:52.333Z,13.00
2023-02-11T03:49:23.188Z,12.95
2023-02-11T03:51:51.930Z,12.85
2023-02-11T03:54:20.891Z,13.07
2023-02-11T03:56:50.988Z,13.08
2023-02-11T03:59:19.048Z,13.11
2023-02-11T04:01:47.013Z,13.10
2023-02-11T04:04:14.977Z,13.02
2023-02-11T04:06:44.650Z,13.04
2023-02-11T04:09:12.798Z,12.96
2023-02-11T04:11:40.783Z,12.99
2023-02-11T04:14:11.406Z,12.94
2023-02-11T04:16:39.414Z,12.94
2023-02-11T04:19:07.567Z,12.90
2023-02-11T04:21:35.556Z,12.80
2023-02-11T04:24:05.328Z,12.88
2023-02-11T04:26:33.254Z,12.75
2023-02-11T04:29:01.178Z,12.91
2023-02-11T04:31:29.285Z,12.93
2023-02-11T04:33:57.882Z,12.93
2023-02-11T04:36:25.800Z,12.92
2023-02-11T04:38:55.254Z,12.95
2023-02-11T04:41:24.602Z,12.95
2023-02-11T04:43:52.734Z,12.95
2023-02-11T04:46:20.836Z,12.93
2023-02-11T04:48:48.843Z,12.96
2023-02-11T04:51:16.892Z,12.96
2023-02-11T04:53:44.875Z,12.97
2023-02-11T04:56:12.910Z,12.95
2023-02-11T04:58:42.240Z,12.93
2023-02-11T05:01:10.404Z,12.94
2023-02-11T05:03:38.576Z,12.88
2023-02-11T05:06:07.077Z,12.99
2023-02-11T05:08:35.129Z,13.01
2023-02-11T05:11:03.096Z,13.02
2023-02-11T05:13:31.128Z,12.98
2023-02-11T05:16:00.411Z,12.84
2023-02-11T05:18:28.360Z,12.81
2023-02-11T05:20:59.129Z,12.81
2023-02-11T05:23:27.090Z,12.78
2023-02-11T05:25:55.022Z,12.75
2023-02-11T05:28:23.115Z,12.70
2023-02-11T05:30:51.225Z,12.75
2023-02-11T05:33:20.521Z,12.72
2023-02-11T05:35:49.290Z,12.70
2023-02-11T05:38:18.721Z,12.64
2023-02-11T05:40:46.628Z,12.64
2023-02-11T05:43:14.532Z,12.65
2023-02-11T05:45:42.478Z,12.72
2023-02-11T05:48:10.428Z,12.76
2023-02-11T05:50:39.860Z,12.81
2023-02-11T05:53:07.870Z,12.85
2023-02-11T05:55:36.980Z,12.89
2023-02-11T05:58:05.064Z,12.94
2023-02-11T06:00:33.745Z,12.84
2023-02-11T06:03:04.214Z,12.99
2023-02-11T06:05:32.303Z,12.98
2023-02-11T06:08:01.672Z,12.99
2023-02-11T06:10:29.643Z,12.97
2023-02-11T06:13:02.524Z,12.98
2023-02-11T06:15:30.535Z,12.90
2023-02-11T06:17:58.498Z,12.99
2023-02-11T06:20:26.596Z,13.01
2023-02-11T06:22:54.526Z,12.99
2023-02-11T06:25:23.875Z,13.01
2023-02-11T06:27:51.935Z,12.99
2023-02-11T06:30:20.063Z,12.94
2023-02-11T06:32:48.105Z,12.90
2023-02-11T06:35:16.176Z,12.87
2023-02-11T06:37:44.210Z,12.88
2023-02-11T06:40:12.422Z,12.89
2023-02-11T06:42:41.848Z,12.91
2023-02-11T06:45:11.088Z,12.96
2023-02-11T06:47:39.196Z,13.00
2023-02-11T06:50:08.015Z,13.00
2023-02-11T06:52:37.258Z,13.00
2023-02-11T06:55:07.615Z,12.98
2023-02-11T06:57:35.676Z,13.05
2023-02-11T07:00:05.875Z,13.07
2023-02-11T07:02:34.129Z,13.05
2023-02-11T07:05:02.089Z,13.08
2023-02-11T07:07:32.403Z,13.06
2023-02-11T07:10:03.171Z,13.01
2023-02-11T07:12:31.201Z,13.07
2023-02-11T07:14:59.147Z,13.01
2023-02-11T07:17:28.590Z,12.99
2023-02-11T07:19:56.605Z,12.98
2023-02-11T07:22:24.583Z,12.99
2023-02-11T07:24:52.658Z,13.00
2023-02-11T07:27:20.620Z,13.00
2023-02-11T07:29:56.095Z,12.99
2023-02-11T07:32:24.274Z,13.05
2023-02-11T07:34:53.968Z,13.03
2023-02-11T07:37:22.058Z,13.04
2023-02-11T07:39:50.090Z,13.05
2023-02-11T07:42:18.125Z,13.07
2023-02-11T07:44:50.224Z,13.08
2023-02-11T07:47:18.489Z,13.04
2023-02-11T07:49:47.679Z,13.01
2023-02-11T07:52:17.057Z,12.99
2023-02-11T07:54:47.096Z,12.97
2023-02-11T07:57:15.182Z,12.96
2023-02-11T07:59:43.083Z,12.85
2023-02-11T08:02:11.663Z,12.95
2023-02-11T08:04:39.866Z,12.98
2023-02-11T08:07:08.632Z,13.02
2023-02-11T08:09:38.011Z,13.06
2023-02-11T08:12:06.518Z,13.05
2023-02-11T08:14:34.453Z,13.05
2023-02-11T08:17:02.431Z,12.99
2023-02-11T08:19:31.599Z,12.95
2023-02-11T08:22:01.344Z,13.01
2023-02-11T08:24:33.490Z,12.99
2023-02-11T08:27:03.002Z,13.02
2023-02-11T08:29:34.042Z,13.05
2023-02-11T08:32:02.051Z,13.09
2023-02-11T08:34:32.720Z,13.10
2023-02-11T08:37:00.708Z,13.14
2023-02-11T08:39:28.628Z,13.14
2023-02-11T08:41:59.764Z,13.14
2023-02-11T08:44:29.631Z,13.09
2023-02-11T08:46:57.643Z,13.16
2023-02-11T08:49:25.840Z,13.19
2023-02-11T08:51:55.501Z,13.22
2023-02-11T08:54:23.630Z,13.22
2023-02-11T08:56:52.868Z,13.24
2023-02-11T08:59:20.988Z,13.26
2023-02-11T09:01:50.448Z,13.22
2023-02-11T09:04:18.575Z,13.26
2023-02-11T09:06:46.546Z,13.34
2023-02-11T09:09:15.545Z,13.33
2023-02-11T09:11:44.072Z,13.40
2023-02-11T09:14:17.064Z,13.36
2023-02-11T09:16:45.553Z,13.25
2023-02-11T09:19:16.670Z,13.34
2023-02-11T09:21:44.810Z,13.33
2023-02-11T09:24:12.790Z,13.40
2023-02-11T09:26:45.114Z,13.43
2023-02-11T09:29:13.809Z,13.44
2023-02-11T09:31:42.019Z,13.49
2023-02-11T09:34:11.350Z,13.44
2023-02-11T09:36:41.048Z,13.53
2023-02-11T09:39:10.521Z,13.63
2023-02-11T09:42:07.310Z,13.71
2023-02-11T09:44:36.513Z,13.64
2023-02-11T09:47:05.731Z,13.75
2023-02-11T09:49:38.324Z,13.84
2023-02-11T09:52:09.680Z,13.87
2023-02-11T09:54:40.285Z,13.84
2023-02-11T09:57:22.983Z,13.89
2023-02-11T09:59:55.909Z,13.97
2023-02-11T10:02:25.801Z,14.01
2023-02-11T10:05:16.311Z,14.09
2023-02-11T10:07:48.301Z,14.11
2023-02-11T10:10:21.356Z,14.07
2023-02-11T10:12:58.336Z,14.16
2023-02-11T10:15:31.875Z,14.20
2023-02-11T10:18:06.632Z,14.18
2023-02-11T10:20:35.872Z,14.26
2023-02-11T10:23:11.010Z,14.31
2023-02-11T10:25:39.853Z,14.34
2023-02-11T10:28:12.996Z,14.38
2023-02-11T10:30:46.170Z,14.39
2023-02-11T10:33:16.827Z,14.43
2023-02-11T10:35:45.724Z,14.48
2023-02-11T10:38:15.074Z,14.39
2023-02-11T10:40:45.819Z,14.56
2023-02-11T10:43:17.744Z,14.58
2023-02-11T10:45:46.544Z,14.63
2023-02-11T10:48:43.614Z,14.65
2023-02-11T10:51:18.601Z,14.67
2023-02-11T10:53:48.534Z,14.68
2023-02-11T10:56:23.311Z,14.73
2023-02-11T10:58:57.618Z,14.79
2023-02-11T11:01:25.800Z,14.82
2023-02-11T11:03:55.269Z,14.82
2023-02-11T11:06:30.410Z,14.90
2023-02-11T11:08:59.809Z,14.94
2023-02-11T11:11:27.956Z,14.98
2023-02-11T11:14:01.319Z,14.97
2023-02-11T11:16:31.732Z,14.97
2023-02-11T11:19:22.595Z,14.95
2023-02-11T11:21:51.185Z,14.98
2023-02-11T11:24:22.492Z,15.01
2023-02-11T11:26:51.771Z,15.05
2023-02-11T11:29:20.357Z,15.09
2023-02-11T11:31:50.578Z,15.01
2023-02-11T11:34:24.353Z,15.14
2023-02-11T11:36:52.305Z,15.18
2023-02-11T11:39:24.265Z,15.18
2023-02-11T11:41:54.031Z,15.26
2023-02-11T11:44:30.246Z,15.27
2023-02-11T11:47:20.752Z,15.30
2023-02-11T11:49:52.231Z,15.33
2023-02-11T11:52:21.965Z,15.37
2023-02-11T11:54:55.018Z,15.44
2023-02-11T11:57:25.297Z,15.47
2023-02-11T11:59:53.385Z,15.51
2023-02-11T12:02:37.029Z,15.56
2023-02-11T12:05:05.954Z,15.58
2023-02-11T12:07:42.960Z,15.56
2023-02-11T12:10:25.669Z,15.65
2023-02-11T12:12:56.867Z,15.67
2023-02-11T12:15:32.685Z,15.70
2023-02-11T12:18:19.417Z,15.67
2023-02-11T12:20:59.953Z,15.68
2023-02-11T12:23:49.592Z,15.63
2023-02-11T12:26:20.195Z,15.71
2023-02-11T12:29:00.092Z,15.77
2023-02-11T12:32:03.922Z,15.81
2023-02-11T12:34:51.776Z,15.80
2023-02-11T12:37:26.033Z,15.88
2023-02-11T12:39:58.064Z,15.92
2023-02-11T12:42:58.998Z,15.98
2023-02-11T12:45:45.365Z,15.97
2023-02-11T12:48:34.755Z,15.97
2023-02-11T12:51:07.277Z,15.97
2023-02-11T12:53:45.885Z,15.99
2023-02-11T12:56:16.274Z,16.02
2023-02-11T12:58:45.978Z,16.08
2023-02-11T13:01:18.101Z,16.14
2023-02-11T13:03:47.302Z,16.13
2023-02-11T13:06:16.234Z,16.11
2023-02-11T13:08:46.071Z,16.05
2023-02-11T13:11:16.639Z,16.12
2023-02-11T13:13:51.287Z,16.11
2023-02-11T13:16:23.990Z,16.14
2023-02-11T13:18:53.660Z,16.19
2023-02-11T13:21:42.455Z,16.24
2023-02-11T13:24:16.988Z,16.29
2023-02-11T13:26:48.491Z,16.29
2023-02-11T13:29:23.196Z,16.22
2023-02-11T13:32:05.160Z,16.36
2023-02-11T13:34:57.764Z,16.38
2023-02-11T13:37:27.126Z,16.47
2023-02-11T13:40:21.891Z,16.58
2023-02-11T13:42:51.635Z,16.58
2023-02-11T13:45:30.015Z,16.61
2023-02-11T13:47:58.613Z,16.62
2023-02-11T13:50:26.840Z,16.61
2023-02-11T13:53:07.370Z,16.73
2023-02-11T13:55:35.432Z,16.77
2023-02-11T13:58:37.114Z,16.77
2023-02-11T14:01:06.871Z,16.66
2023-02-11T14:03:56.910Z,16.73
2023-02-11T14:06:46.343Z,16.79
2023-02-11T14:09:41.987Z,16.86
2023-02-11T14:12:32.693Z,16.86
2023-02-11T14:15:04.251Z,16.86
2023-02-11T14:17:39.984Z,16.88
2023-02-11T14:20:48.344Z,16.95
2023-02-11T14:23:27.638Z,16.94
2023-02-11T14:26:01.342Z,16.87
2023-02-11T14:28:32.726Z,16.78
2023-02-11T14:31:03.790Z,16.75
2023-02-11T14:34:00.186Z,16.69
2023-02-11T14:36:56.584Z,16.55
2023-02-11T14:39:31.431Z,16.51
2023-02-11T14:41:59.467Z,16.44
2023-02-11T14:44:29.509Z,16.46
2023-02-11T14:46:58.086Z,16.42
2023-02-11T14:49:32.248Z,16.31
2023-02-11T14:52:05.868Z,16.33
2023-02-11T14:54:33.911Z,16.34
2023-02-11T14:57:12.040Z,16.31
2023-02-11T14:59:40.554Z,16.26
2023-02-11T15:02:22.614Z,16.21
2023-02-11T15:04:52.036Z,16.11
2023-02-11T15:07:20.012Z,16.10
2023-02-11T15:09:49.183Z,16.00
2023-02-11T15:12:18.682Z,16.02
2023-02-11T15:14:48.058Z,15.98
2023-02-11T15:17:17.279Z,16.01
2023-02-11T15:19:47.368Z,16.04
2023-02-11T15:22:20.503Z,15.95
2023-02-11T15:24:58.788Z,16.04
2023-02-11T15:27:26.891Z,16.00
2023-02-11T15:29:55.761Z,16.01
2023-02-11T15:32:25.476Z,16.05
2023-02-11T15:34:54.281Z,15.89
2023-02-11T15:37:25.418Z,16.04
2023-02-11T15:39:53.482Z,15.99
2023-02-11T15:42:24.695Z,15.99
2023-02-11T15:45:12.913Z,15.97
2023-02-11T15:47:45.770Z,15.98
2023-02-11T15:50:21.172Z,15.90
2023-02-11T15:52:50.667Z,15.88
2023-02-11T15:55:18.907Z,15.90
2023-02-11T15:57:47.019Z,15.92
2023-02-11T16:00:19.383Z,15.86
2023-02-11T16:02:49.043Z,15.91
2023-02-11T16:05:30.310Z,15.85
2023-02-11T16:08:00.400Z,15.83
2023-02-11T16:10:29.868Z,15.76
2023-02-11T16:13:18.589Z,15.80
2023-02-11T16:16:02.490Z,15.84
2023-02-11T16:18:40.100Z,15.82
2023-02-11T16:21:14.493Z,15.83
2023-02-11T16:23:43.899Z,15.82
2023-02-11T16:26:14.172Z,15.85
2023-02-11T16:28:42.505Z,15.77
2023-02-11T16:31:13.818Z,15.86
2023-02-11T16:33:41.777Z,15.76
2023-02-11T16:36:27.089Z,15.78
2023-02-11T16:38:56.647Z,15.75
2023-02-11T16:41:24.787Z,15.66
2023-02-11T16:43:52.819Z,15.62
2023-02-11T16:46:23.549Z,15.75
2023-02-11T16:48:51.711Z,15.71
2023-02-11T16:51:19.777Z,15.67
2023-02-11T16:53:47.857Z,15.67
2023-02-11T16:56:20.392Z,15.65
2023-02-11T16:58:48.462Z,15.64
2023-02-11T17:01:18.912Z,15.61
2023-02-11T17:03:54.085Z,15.57
2023-02-11T17:06:22.947Z,15.52
2023-02-11T17:08:53.876Z,15.45
2023-02-11T17:16:47.938Z,15.36
2023-02-11T17:19:16.931Z,15.24
2023-02-11T17:21:44.924Z,15.26
2023-02-11T17:24:14.255Z,15.23
2023-02-11T17:26:43.839Z,15.18
2023-02-11T17:29:16.932Z,15.16
2023-02-11T17:31:47.471Z,15.09
2023-02-11T17:34:15.513Z,15.04
2023-02-11T17:36:46.850Z,14.95
2023-02-11T17:39:16.059Z,14.89
2023-02-11T17:41:46.044Z,14.85
2023-02-11T17:44:16.615Z,14.82
2023-02-11T17:46:45.369Z,14.68
2023-02-11T17:49:23.278Z,14.66
2023-02-11T17:51:52.213Z,14.56
2023-02-11T17:54:20.404Z,14.50
2023-02-11T17:56:50.839Z,14.40
2023-02-11T17:59:26.062Z,14.31
2023-02-11T18:01:54.110Z,14.22
2023-02-11T18:04:29.587Z,14.05
2023-02-11T18:06:58.662Z,14.03
2023-02-11T18:09:26.654Z,13.91
2023-02-11T18:11:56.136Z,13.86
2023-02-11T18:14:35.953Z,13.75
2023-02-11T18:17:06.694Z,13.68
2023-02-11T18:19:36.588Z,13.56
2023-02-11T18:22:04.928Z,13.33
2023-02-11T18:24:32.879Z,13.44
2023-02-11T18:27:15.858Z,13.36
2023-02-11T18:29:45.074Z,13.31
2023-02-11T18:32:13.363Z,13.27
2023-02-11T18:34:41.823Z,13.27
2023-02-11T18:37:11.370Z,13.15
2023-02-11T18:39:40.411Z,13.23
2023-02-11T18:42:15.295Z,13.23
2023-02-11T18:44:52.462Z,13.24
2023-02-11T18:47:20.938Z,13.22
2023-02-11T18:49:51.030Z,13.19
2023-02-11T18:52:19.057Z,13.15
2023-02-11T18:54:49.437Z,13.12
2023-02-11T18:57:26.418Z,13.11
2023-02-11T18:59:54.681Z,13.07
2023-02-11T19:02:22.818Z,13.05
2023-02-11T19:04:50.801Z,13.03
2023-02-11T19:07:20.238Z,12.96
2023-02-11T19:09:49.059Z,12.96
2023-02-11T19:12:20.771Z,12.98
2023-02-11T19:14:54.425Z,12.97
2023-02-11T19:17:24.887Z,12.95
2023-02-11T19:19:52.923Z,12.91
2023-02-11T19:22:20.883Z,12.96
2023-02-11T19:24:49.085Z,12.95
2023-02-11T19:27:18.520Z,12.87
2023-02-11T19:29:50.087Z,12.89
2023-02-11T19:32:18.471Z,12.89
2023-02-11T19:34:46.405Z,12.89
2023-02-11T19:37:17.280Z,12.87
2023-02-11T19:39:45.313Z,12.86
2023-02-11T19:42:15.475Z,12.66
2023-02-11T19:44:47.215Z,12.82
2023-02-11T19:47:27.808Z,12.75
2023-02-11T19:49:56.090Z,12.77
2023-02-11T19:52:24.341Z,12.74
2023-02-11T19:54:54.932Z,12.73
2023-02-11T19:57:22.942Z,12.71
2023-02-11T19:59:55.020Z,12.71
2023-02-11T20:02:24.793Z,12.63
2023-02-11T20:04:53.021Z,12.68
2023-02-11T20:07:23.443Z,12.65
2023-02-11T20:09:53.643Z,12.67
2023-02-11T20:12:21.658Z,12.61
2023-02-11T20:14:49.628Z,12.57
2023-02-11T20:17:19.442Z,12.55
2023-02-11T20:19:47.434Z,12.51
2023-02-11T20:22:15.357Z,12.49
2023-02-11T20:24:43.367Z,12.41
2023-02-11T20:27:11.559Z,12.45
2023-02-11T20:29:39.831Z,12.41
2023-02-11T20:32:08.171Z,12.13
2023-02-11T20:34:38.815Z,12.28
2023-02-11T20:37:08.579Z,12.08
2023-02-11T20:39:37.350Z,11.96
2023-02-11T20:42:16.848Z,12.12
2023-02-11T20:44:52.529Z,12.06
2023-02-11T20:47:22.720Z,12.02
2023-02-11T20:49:56.754Z,11.97
2023-02-11T20:52:37.050Z,11.89
2023-02-11T20:55:09.325Z,11.87
2023-02-11T20:57:38.133Z,11.83
2023-02-11T21:00:07.075Z,11.78
2023-02-11T21:02:35.189Z,11.72
2023-02-11T21:05:06.754Z,11.69
2023-02-11T21:07:50.466Z,11.66
2023-02-11T21:10:21.738Z,11.59
2023-02-11T21:12:50.060Z,11.53
2023-02-11T21:15:18.231Z,11.49
2023-02-11T21:17:46.716Z,11.41
2023-02-11T21:20:16.164Z,11.41
2023-02-11T21:22:46.448Z,11.42
2023-02-11T21:25:14.662Z,11.38
2023-02-11T21:27:42.615Z,11.35
2023-02-11T21:30:13.847Z,11.37
2023-02-11T21:32:41.859Z,11.34
2023-02-11T21:35:10.221Z,11.35
2023-02-11T21:37:39.757Z,11.16
2023-02-11T21:40:09.677Z,11.42
2023-02-11T21:42:40.247Z,11.45
2023-02-11T21:45:09.244Z,11.46
2023-02-11T21:47:37.231Z,11.55
2023-02-11T21:50:08.163Z,11.56
2023-02-11T21:52:38.999Z,11.58
2023-02-11T21:55:10.028Z,11.57
2023-02-11T21:57:46.688Z,11.60
2023-02-11T22:00:16.144Z,11.41
2023-02-11T22:02:49.826Z,11.49
2023-02-11T22:05:18.420Z,11.55
2023-02-11T22:07:47.840Z,11.43
2023-02-11T22:10:19.290Z,11.51
2023-02-11T22:12:47.445Z,11.47
2023-02-11T22:15:15.732Z,11.45
2023-02-11T22:17:44.064Z,11.38
2023-02-11T22:20:12.816Z,11.33
2023-02-11T22:22:50.749Z,11.28
2023-02-11T22:25:22.223Z,11.25
2023-02-11T22:27:50.258Z,11.20
2023-02-11T22:30:19.546Z,11.13
2023-02-11T22:32:47.481Z,11.11
2023-02-11T22:35:15.833Z,11.05
2023-02-11T22:37:49.620Z,11.00
2023-02-11T22:40:17.878Z,11.06
2023-02-11T22:42:47.349Z,11.01
2023-02-11T22:45:17.945Z,10.96
2023-02-11T22:47:46.589Z,10.94
2023-02-11T22:50:14.765Z,10.92
2023-02-11T22:52:43.108Z,10.84
2023-02-11T22:55:11.095Z,10.99
2023-02-11T22:57:41.988Z,10.82
2023-02-11T23:00:15.650Z,11.00
2023-02-11T23:02:51.137Z,10.96
2023-02-11T23:05:21.179Z,10.98
2023-02-11T23:07:51.803Z,10.97
2023-02-11T23:10:23.807Z,10.99
2023-02-11T23:12:52.723Z,10.93
2023-02-11T23:15:22.053Z,11.01
2023-02-11T23:17:52.131Z,11.01
2023-02-11T23:20:23.311Z,10.94
2023-02-11T23:22:51.370Z,10.96
2023-02-11T23:25:19.749Z,10.93
2023-02-11T23:27:49.836Z,10.87
2023-02-11T23:30:25.028Z,10.86
2023-02-11T23:32:55.246Z,10.84
2023-02-11T23:35:26.781Z,10.85
2023-02-11T23:37:55.279Z,10.83
2023-02-11T23:40:23.612Z,10.68
2023-02-11T23:42:51.588Z,10.78
2023-02-11T23:45:19.756Z,10.77
2023-02-11T23:47:49.120Z,10.75
2023-02-11T23:50:17.205Z,10.70
2023-02-11T23:52:45.232Z,10.69
2023-02-11T23:55:14.208Z,10.51
2023-02-11T23:57:42.158Z,10.61
